Time;durP1;ratioP1;P1;durP2;ratioP2;P2;SDS_P1;SDS_P2;PMS_P1;PMS_P2;Temp;Humidity;BMP_temperature;BMP_pressure;BME280_temperature;BME280_humidity;BME280_pressure;Samples;Min_cycle;Max_cycle;Signal;HPM_P1;HPM_P2
2023/12/21 00:01:10;;;;;;;6.65;1.58;;;;;;;15.48;54.89;100663.41;5075433;28;20105;-62
2023/12/21 00:03:35;;;;;;;3.08;1.50;;;;;;;15.54;56.03;100664.59;5075643;28;20054;-62
2023/12/21 00:06:00;;;;;;;5.63;1.50;;;;;;;15.54;55.16;100654.63;5093701;28;20032;-62
2023/12/21 00:08:26;;;;;;;4.55;1.77;;;;;;;15.57;55.45;100664.25;5075668;28;20053;-62
2023/12/21 00:10:52;;;;;;;3.45;1.52;;;;;;;15.59;56.49;100663.09;5092485;28;20081;-62
2023/12/21 00:13:17;;;;;;;3.38;1.98;;;;;;;15.61;55.76;100661.06;5092630;28;20105;-62
2023/12/21 00:15:43;;;;;;;4.65;2.22;;;;;;;15.63;55.84;100656.31;5075514;28;20124;-61
2023/12/21 00:18:08;;;;;;;6.03;2.20;;;;;;;15.63;55.80;100645.53;5074652;28;20047;-62
2023/12/21 00:20:34;;;;;;;6.43;1.58;;;;;;;15.69;54.92;100654.81;5075183;28;20038;-61
2023/12/21 00:22:59;;;;;;;4.20;2.08;;;;;;;15.73;56.33;100648.94;5093348;28;20036;-61
2023/12/21 00:25:25;;;;;;;7.70;2.20;;;;;;;15.72;55.76;100641.81;5093117;28;20111;-62
2023/12/21 00:27:50;;;;;;;5.35;1.48;;;;;;;15.74;55.00;100620.91;5092209;28;20039;-62
2023/12/21 00:30:15;;;;;;;5.07;1.77;;;;;;;15.77;55.40;100621.59;5092161;28;20521;-61
2023/12/21 00:32:41;;;;;;;5.30;1.88;;;;;;;15.78;55.20;100626.81;5075223;28;20040;-61
2023/12/21 00:35:07;;;;;;;7.28;1.58;;;;;;;15.80;55.13;100611.28;5092020;28;20089;-61
2023/12/21 00:37:36;;;;;;;4.93;1.58;;;;;;;15.78;55.37;100612.47;5091680;28;20028;-61
2023/12/21 00:40:03;;;;;;;2.83;1.83;;;;;;;15.73;55.62;100592.22;5091926;28;20033;-61
2023/12/21 00:42:30;;;;;;;3.72;1.63;;;;;;;15.74;55.90;100591.19;5091795;28;20052;-61
2023/12/21 00:44:55;;;;;;;10.98;2.08;;;;;;;15.74;55.99;100587.66;5091910;28;20062;-61
2023/12/21 00:47:21;;;;;;;3.42;1.60;;;;;;;15.71;56.59;100596.09;5092466;28;20381;-61
2023/12/21 00:49:46;;;;;;;2.80;1.63;;;;;;;15.65;56.02;100569.75;5093872;28;20064;-61
2023/12/21 00:52:11;;;;;;;3.92;1.42;;;;;;;15.69;56.17;100585.44;5092842;28;20032;-61
2023/12/21 00:54:37;;;;;;;2.85;1.70;;;;;;;15.72;55.27;100592.38;5094518;28;20059;-61
2023/12/21 00:57:02;;;;;;;4.78;1.35;;;;;;;15.70;55.63;100584.44;5092827;28;20123;-61
2023/12/21 00:59:28;;;;;;;1.95;1.30;;;;;;;15.66;55.44;100572.28;5093431;28;20488;-60
2023/12/21 01:01:54;;;;;;;1.38;1.10;;;;;;;15.65;55.71;100559.81;5092564;28;20036;-61
2023/12/21 01:04:19;;;;;;;1.77;1.63;;;;;;;15.66;56.29;100549.88;5092294;28;20434;-61
2023/12/21 01:06:46;;;;;;;1.38;1.10;;;;;;;15.66;55.71;100545.28;5093353;28;20078;-61
2023/12/21 01:09:11;;;;;;;2.85;1.25;;;;;;;15.63;55.95;100542.91;5092127;28;20036;-62
2023/12/21 01:11:37;;;;;;;4.38;1.45;;;;;;;15.63;56.49;100534.81;5092149;28;20024;-62
2023/12/21 01:14:02;;;;;;;2.65;1.55;;;;;;;15.62;56.46;100535.84;5093553;28;20029;-61
2023/12/21 01:16:28;;;;;;;1.40;1.30;;;;;;;15.62;55.41;100535.84;5092169;28;20518;-61
2023/12/21 01:18:53;;;;;;;1.20;1.10;;;;;;;15.63;56.10;100534.00;5091981;28;20105;-61
2023/12/21 01:21:18;;;;;;;1.38;1.02;;;;;;;15.62;56.50;100525.03;5075099;28;20050;-61
2023/12/21 01:23:44;;;;;;;3.90;1.00;;;;;;;15.63;56.14;100521.31;5093413;28;20495;-61
2023/12/21 01:26:09;;;;;;;3.47;1.92;;;;;;;15.63;55.56;100515.91;5092049;28;20489;-61
2023/12/21 01:28:35;;;;;;;5.38;1.48;;;;;;;15.62;55.49;100516.94;5091574;28;20043;-61
2023/12/21 01:31:00;;;;;;;2.30;1.23;;;;;;;15.62;56.95;100514.25;5074641;28;20166;-62
2023/12/21 01:33:25;;;;;;;3.42;1.83;;;;;;;15.61;56.29;100493.66;5092800;28;20111;-62
2023/12/21 01:35:51;;;;;;;5.90;1.55;;;;;;;15.63;55.53;100488.09;5074727;28;20036;-62
2023/12/21 01:38:16;;;;;;;2.35;1.58;;;;;;;15.62;56.17;100483.69;5091573;28;20090;-62
2023/12/21 01:40:42;;;;;;;3.35;1.27;;;;;;;15.64;56.39;100497.84;5091225;28;20032;-62
2023/12/21 01:43:08;;;;;;;4.03;1.65;;;;;;;15.63;55.51;100490.78;5092651;28;20392;-61
2023/12/21 01:45:33;;;;;;;5.25;1.42;;;;;;;15.64;55.91;100493.31;5092903;28;20032;-62
2023/12/21 01:48:01;;;;;;;3.50;1.67;;;;;;;15.64;55.93;100493.31;5074459;28;20468;-62
2023/12/21 01:50:27;;;;;;;6.38;1.10;;;;;;;15.66;56.25;100493.97;5086007;28;20059;-62
2023/12/21 01:52:55;;;;;;;6.47;1.45;;;;;;;15.66;55.45;100485.88;5074882;28;20492;-61
2023/12/21 01:55:21;;;;;;;7.28;1.40;;;;;;;15.68;55.75;100483.88;5058215;28;20063;-61
2023/12/21 01:57:47;;;;;;;6.03;1.30;;;;;;;15.70;55.93;100476.44;5057824;28;20411;-62
2023/12/21 02:00:13;;;;;;;2.72;1.33;;;;;;;15.72;55.56;100468.16;5057878;28;20115;-61
2023/12/21 02:02:38;;;;;;;4.55;1.77;;;;;;;15.76;56.26;100466.81;5074269;28;20496;-61
2023/12/21 02:05:04;;;;;;;5.40;1.67;;;;;;;15.79;56.14;100477.25;5057809;28;20037;-61
2023/12/21 02:07:29;;;;;;;1.67;1.33;;;;;;;15.79;55.70;100473.72;5074543;28;20083;-62
2023/12/21 02:09:55;;;;;;;2.45;1.25;;;;;;;15.81;56.55;100466.28;5074394;28;20050;-61
2023/12/21 02:12:20;;;;;;;7.30;2.05;;;;;;;15.80;56.35;100454.63;5057745;28;20053;-61
2023/12/21 02:14:45;;;;;;;2.78;1.67;;;;;;;15.78;56.02;100450.41;5074402;28;20464;-61
2023/12/21 02:17:14;;;;;;;4.63;1.65;;;;;;;15.76;56.20;100447.06;5074505;28;20041;-62
2023/12/21 02:19:39;;;;;;;4.07;1.30;;;;;;;15.76;55.49;100436.25;5074563;28;20090;-61
2023/12/21 02:22:05;;;;;;;5.93;1.48;;;;;;;15.77;56.23;100444.19;5057591;28;20489;-62
2023/12/21 02:24:31;;;;;;;5.97;1.60;;;;;;;15.80;56.14;100453.81;5075473;28;20615;-62
2023/12/21 02:26:58;;;;;;;2.95;1.27;;;;;;;15.80;56.41;100449.22;5075409;28;20043;-62
2023/12/21 02:29:24;;;;;;;10.13;1.75;;;;;;;15.81;55.79;100466.28;5074096;28;20514;-61
2023/12/21 02:31:49;;;;;;;7.68;1.73;;;;;;;15.77;56.43;100444.19;5057503;28;20032;-61
2023/12/21 02:34:14;;;;;;;2.28;1.85;;;;;;;15.76;56.19;100449.75;5057474;28;20032;-62
2023/12/21 02:36:40;;;;;;;5.97;1.48;;;;;;;15.73;55.90;100449.09;5075534;28;20033;-62
2023/12/21 02:39:05;;;;;;;5.45;1.77;;;;;;;15.76;56.18;100447.06;5073903;28;20043;-61
2023/12/21 02:41:30;;;;;;;3.58;1.42;;;;;;;15.73;55.96;100446.38;5075018;28;20488;-61
2023/12/21 02:43:56;;;;;;;5.03;2.03;;;;;;;15.77;56.23;100443.34;5074111;28;20059;-62
2023/12/21 02:46:24;;;;;;;5.07;1.60;;;;;;;15.81;56.40;100436.56;5074035;28;20141;-61
2023/12/21 02:48:49;;;;;;;4.90;1.20;;;;;;;15.82;56.36;100413.94;5074456;28;20047;-61
2023/12/21 02:51:15;;;;;;;5.18;1.58;;;;;;;15.80;55.62;100397.09;5057411;28;20032;-61
2023/12/21 02:53:40;;;;;;;4.20;2.08;;;;;;;15.79;56.54;100379.19;5074047;28;20381;-61
2023/12/21 02:56:06;;;;;;;7.72;2.03;;;;;;;15.82;56.13;100381.53;5073670;28;20404;-61
2023/12/21 02:58:31;;;;;;;7.25;1.70;;;;;;;15.83;56.22;100384.06;5073461;28;20094;-61
2023/12/21 03:00:57;;;;;;;5.28;1.60;;;;;;;15.85;56.51;100382.06;5074702;28;20426;-62
2023/12/21 03:03:22;;;;;;;3.08;1.10;;;;;;;15.83;55.71;100375.13;5074567;28;20032;-62
2023/12/21 03:05:47;;;;;;;7.60;1.40;;;;;;;15.85;56.28;100368.53;5073663;28;20040;-61
2023/12/21 03:08:13;;;;;;;7.15;1.90;;;;;;;15.87;55.21;100371.06;5073700;28;20630;-62
2023/12/21 03:10:38;;;;;;;3.15;1.35;;;;;;;15.84;56.43;100374.09;5056721;28;20400;-62
2023/12/21 03:13:04;;;;;;;5.07;1.30;;;;;;;15.84;55.88;100374.94;5073563;28;20116;-61
2023/12/21 03:15:31;;;;;;;5.75;2.08;;;;;;;15.81;55.57;100363.66;5074175;28;20032;-61
2023/12/21 03:17:57;;;;;;;5.32;1.35;;;;;;;15.81;55.44;100369.03;5074487;28;20068;-62
2023/12/21 03:20:22;;;;;;;2.55;1.85;;;;;;;15.82;56.46;100377.00;5075678;28;20500;-62
2023/12/21 03:22:47;;;;;;;5.75;1.27;;;;;;;15.80;56.88;100364.69;5074095;28;20119;-61
2023/12/21 03:25:13;;;;;;;6.47;2.67;;;;;;;15.79;56.52;100366.53;5074700;28;20052;-62
2023/12/21 03:27:38;;;;;;;7.15;1.52;;;;;;;15.77;55.85;100357.78;5074918;28;20378;-62
2023/12/21 03:30:04;;;;;;;4.88;2.35;;;;;;;15.74;57.00;100350.03;5073056;28;20120;-62
2023/12/21 03:32:29;;;;;;;4.85;1.40;;;;;;;15.74;56.09;100340.03;5074286;28;20056;-62
2023/12/21 03:34:57;;;;;;;4.65;1.58;;;;;;;15.73;56.58;100324.88;5072990;28;20047;-62
2023/12/21 03:37:27;;;;;;;3.55;1.42;;;;;;;15.70;56.34;100303.59;5074163;28;20071;-62
2023/12/21 03:39:54;;;;;;;7.55;1.45;;;;;;;15.70;56.48;100281.16;5074393;28;20040;-62
2023/12/21 03:42:19;;;;;;;5.10;1.67;;;;;;;15.67;56.63;100268.84;5072692;28;20500;-62
2023/12/21 03:44:46;;;;;;;5.78;1.30;;;;;;;15.69;57.35;100268.66;5072929;28;20048;-63
2023/12/21 03:47:11;;;;;;;5.70;2.00;;;;;;;15.68;55.75;100278.66;5056001;28;20028;-61
2023/12/21 03:49:36;;;;;;;4.75;1.65;;;;;;;15.65;56.21;100268.19;5056134;28;20527;-62
2023/12/21 03:52:02;;;;;;;5.93;1.33;;;;;;;15.67;56.22;100265.31;5072616;28;20095;-62
2023/12/21 03:54:28;;;;;;;4.38;1.13;;;;;;;15.67;56.19;100270.72;5073804;28;20114;-62
2023/12/21 03:56:53;;;;;;;4.28;1.25;;;;;;;15.65;56.27;100259.25;5073759;28;20076;-62
2023/12/21 03:59:18;;;;;;;12.43;1.92;;;;;;;15.65;57.34;100262.78;5056235;28;20041;-62
2023/12/21 04:01:45;;;;;;;5.15;1.13;;;;;;;15.63;56.71;100248.59;5072648;28;20037;-62
2023/12/21 04:04:11;;;;;;;7.20;1.45;;;;;;;15.64;55.96;100238.66;5055940;28;20039;-63
2023/12/21 04:06:36;;;;;;;6.18;1.60;;;;;;;15.63;56.17;100254.00;5073676;28;20119;-62
2023/12/21 04:09:02;;;;;;;5.88;1.33;;;;;;;15.67;55.78;100241.84;5071644;28;20075;-73
2023/12/21 04:11:28;;;;;;;4.53;1.35;;;;;;;15.66;56.64;100232.06;5055804;27;20066;-63
2023/12/21 04:13:53;;;;;;;4.25;1.30;;;;;;;15.68;56.53;100234.59;5072005;28;20024;-63
2023/12/21 04:16:19;;;;;;;8.02;1.63;;;;;;;15.69;57.05;100220.06;5073469;28;20084;-63
2023/12/21 04:18:44;;;;;;;6.75;1.60;;;;;;;15.72;57.01;100217.00;5055404;28;20043;-63
2023/12/21 04:21:10;;;;;;;6.80;1.35;;;;;;;15.70;55.85;100217.19;5073169;28;20029;-62
2023/12/21 04:23:35;;;;;;;7.40;1.30;;;;;;;15.70;56.88;100211.81;5073403;28;20033;-62
2023/12/21 04:26:01;;;;;;;9.73;2.13;;;;;;;15.68;55.95;100197.66;5055371;28;20028;-62
2023/12/21 04:28:26;;;;;;;3.72;1.23;;;;;;;15.71;57.43;100218.91;5072397;28;20024;-62
2023/12/21 04:30:52;;;;;;;3.38;1.23;;;;;;;15.72;56.19;100209.75;5071848;28;20020;-62
2023/12/21 04:33:17;;;;;;;10.75;1.75;;;;;;;15.78;56.37;100218.16;5054995;28;20159;-62
2023/12/21 04:35:46;;;;;;;3.88;1.85;;;;;;;15.79;56.52;100214.44;5055202;28;20031;-62
2023/12/21 04:38:12;;;;;;;5.10;1.70;;;;;;;15.80;56.71;100208.03;5073230;28;20036;-62
2023/12/21 04:40:38;;;;;;;7.90;1.83;;;;;;;15.78;56.43;100210.06;5054879;28;20526;-62
2023/12/21 04:43:05;;;;;;;8.60;1.98;;;;;;;15.79;55.86;100199.09;5055159;28;20017;-62
2023/12/21 04:45:30;;;;;;;8.88;2.05;;;;;;;15.81;56.40;100199.75;5073023;28;20071;-62
2023/12/21 04:47:56;;;;;;;9.40;2.08;;;;;;;15.83;56.54;100188.78;5072945;28;20055;-61
2023/12/21 04:50:21;;;;;;;6.22;2.17;;;;;;;15.87;56.30;100176.59;5073083;27;20415;-62
2023/12/21 04:52:48;;;;;;;11.35;2.40;;;;;;;15.87;56.61;100171.19;5070548;28;20361;-61
2023/12/21 04:55:15;;;;;;;9.23;2.70;;;;;;;15.90;57.29;100168.13;5054765;28;20020;-62
2023/12/21 04:57:40;;;;;;;7.50;2.55;;;;;;;15.90;55.88;100162.72;5071273;28;20135;-62
2023/12/21 05:00:07;;;;;;;7.53;2.47;;;;;;;15.90;56.65;100147.38;5072743;28;20110;-62
2023/12/21 05:02:33;;;;;;;8.63;2.50;;;;;;;15.89;57.21;100148.38;5054840;28;20492;-62
2023/12/21 05:04:59;;;;;;;5.72;1.83;;;;;;;15.90;56.14;100162.72;5071661;28;20062;-62
2023/12/21 05:07:24;;;;;;;7.18;2.55;;;;;;;15.89;56.74;100155.63;5054951;28;20427;-62
2023/12/21 05:09:50;;;;;;;10.23;2.58;;;;;;;15.89;56.24;100139.41;5071769;28;20032;-62
2023/12/21 05:12:15;;;;;;;10.95;2.13;;;;;;;15.88;56.22;100129.66;5054986;28;20396;-63
2023/12/21 05:14:41;;;;;;;9.27;1.85;;;;;;;15.88;55.71;100121.56;5071501;28;20040;-62
2023/12/21 05:17:07;;;;;;;9.32;3.38;;;;;;;15.86;56.91;100118.19;5071725;28;20059;-62
2023/12/21 05:19:32;;;;;;;11.00;2.88;;;;;;;15.89;56.73;100125.91;5072016;28;20170;-61
2023/12/21 05:21:58;;;;;;;9.63;2.08;;;;;;;15.91;57.21;100105.00;5054419;28;20606;-62
2023/12/21 05:24:23;;;;;;;7.80;2.35;;;;;;;15.95;56.15;100095.50;5072264;28;20094;-62
2023/12/21 05:26:49;;;;;;;10.95;2.15;;;;;;;15.92;57.04;100069.69;5077862;28;20116;-62
2023/12/21 05:29:14;;;;;;;16.70;3.63;;;;;;;15.97;57.20;100078.06;5077347;28;20408;-61
2023/12/21 05:31:41;;;;;;;11.13;2.80;;;;;;;15.97;56.21;100091.59;5059243;28;20028;-62
2023/12/21 05:34:07;;;;;;;16.42;2.40;;;;;;;15.99;56.35;100086.00;5058656;28;20078;-62
2023/12/21 05:36:32;;;;;;;9.25;2.13;;;;;;;15.98;56.83;100087.03;5074950;28;20029;-61
2023/12/21 05:38:58;;;;;;;16.23;2.53;;;;;;;16.00;56.83;100088.53;5058227;28;20052;-62
2023/12/21 05:41:24;;;;;;;11.10;2.38;;;;;;;15.93;56.63;100075.94;5074596;28;20377;-62
2023/12/21 05:43:50;;;;;;;8.15;1.90;;;;;;;15.97;56.45;100099.69;5075164;28;20028;-62
2023/12/21 05:46:16;;;;;;;9.02;1.90;;;;;;;15.97;56.96;100098.88;5074886;28;20044;-61
2023/12/21 05:48:41;;;;;;;10.88;2.75;;;;;;;15.98;56.31;100092.44;5074639;28;20025;-62
2023/12/21 05:51:06;;;;;;;9.23;2.20;;;;;;;16.00;56.33;100074.16;5076193;28;20054;-61
2023/12/21 05:53:35;;;;;;;6.43;1.98;;;;;;;16.02;56.32;100058.63;5075997;28;20399;-62
2023/12/21 05:56:02;;;;;;;11.05;1.83;;;;;;;16.02;56.77;100050.53;5076131;28;20039;-62
2023/12/21 05:58:28;;;;;;;9.48;2.08;;;;;;;15.99;56.28;100048.19;5075111;28;20040;-61
2023/12/21 06:00:54;;;;;;;6.63;2.22;;;;;;;16.02;56.51;100039.72;5076042;28;20102;-62
2023/12/21 06:03:20;;;;;;;6.88;2.08;;;;;;;16.01;56.84;100035.34;5076991;28;20079;-63
2023/12/21 06:05:45;;;;;;;15.18;1.90;;;;;;;16.02;56.71;100043.28;5071637;28;20067;-63
2023/12/21 06:08:10;;;;;;;10.45;2.45;;;;;;;16.06;56.69;100059.94;5055740;28;20041;-61
2023/12/21 06:10:36;;;;;;;12.15;2.25;;;;;;;16.08;56.39;100071.41;5054055;28;20025;-62
2023/12/21 06:13:01;;;;;;;8.68;1.75;;;;;;;16.08;57.06;100066.00;5037797;28;20078;-62
2023/12/21 06:15:27;;;;;;;13.93;2.35;;;;;;;16.11;56.41;100057.50;5054436;28;20036;-62
2023/12/21 06:17:52;;;;;;;9.55;2.35;;;;;;;16.15;56.90;100054.28;5054281;28;20060;-61
2023/12/21 06:20:19;;;;;;;8.13;2.33;;;;;;;16.17;55.97;100049.53;5053688;28;20386;-62
2023/12/21 06:22:45;;;;;;;17.63;2.05;;;;;;;16.19;55.98;100046.66;5038090;28;20523;-61
2023/12/21 06:25:11;;;;;;;11.45;2.70;;;;;;;16.21;55.74;100044.59;5055697;28;20029;-61
2023/12/21 06:27:37;;;;;;;10.30;3.20;;;;;;;16.21;56.12;100036.50;5075386;28;20109;-59
2023/12/21 06:30:04;;;;;;;15.48;2.92;;;;;;;16.22;56.27;100052.50;5074315;28;20063;-61
2023/12/21 06:32:30;;;;;;;9.40;2.63;;;;;;;16.22;56.63;100057.06;5092039;28;20028;-60
2023/12/21 06:34:55;;;;;;;5.38;1.88;;;;;;;16.20;56.55;100045.59;5094303;28;20039;-60
2023/12/21 06:37:20;;;;;;;6.07;2.13;;;;;;;16.21;56.86;100026.53;5087674;28;20038;-61
2023/12/21 06:39:46;;;;;;;6.20;1.67;;;;;;;16.19;56.34;100009.63;5104674;28;20094;-60
2023/12/21 06:42:11;;;;;;;11.85;2.55;;;;;;;16.19;55.78;100006.13;5094236;28;20028;-58
2023/12/21 06:44:37;;;;;;;6.82;2.60;;;;;;;16.19;56.89;100001.53;5095522;28;20127;-59
2023/12/21 06:47:02;;;;;;;9.73;2.05;;;;;;;16.22;56.49;99989.50;5095522;28;20044;-59
2023/12/21 06:49:28;;;;;;;9.63;1.77;;;;;;;16.25;57.25;99983.72;5076763;28;20043;-59
2023/12/21 06:51:53;;;;;;;6.07;2.30;;;;;;;16.27;56.76;99987.09;5094053;28;20411;-59
2023/12/21 06:54:18;;;;;;;11.90;2.20;;;;;;;16.30;56.53;99981.34;5077355;28;20028;-59
2023/12/21 06:56:44;;;;;;;6.03;2.10;;;;;;;16.31;56.32;99983.00;5093755;28;20055;-59
2023/12/21 06:59:09;;;;;;;11.02;2.33;;;;;;;16.34;57.05;99979.91;5095173;28;20096;-59
2023/12/21 07:01:35;;;;;;;6.93;1.75;;;;;;;16.35;56.46;99981.59;5094340;28;20064;-59
2023/12/21 07:04:00;;;;;;;7.22;2.10;;;;;;;16.34;57.16;99979.91;5094518;28;20098;-59
2023/12/21 07:06:26;;;;;;;8.52;2.45;;;;;;;16.34;57.17;99988.03;5093726;28;20036;-59
2023/12/21 07:08:52;;;;;;;6.05;2.47;;;;;;;16.35;56.25;100000.53;5078440;28;20021;-59
2023/12/21 07:11:18;;;;;;;11.60;2.88;;;;;;;16.36;56.37;99996.78;5074855;28;20043;-60
2023/12/21 07:13:44;;;;;;;14.43;2.20;;;;;;;16.37;56.89;99989.50;5073568;28;20032;-59
2023/12/21 07:16:10;;;;;;;11.35;1.95;;;;;;;16.37;56.54;99984.09;5073190;28;20048;-59
2023/12/21 07:18:36;;;;;;;3.92;2.70;;;;;;;16.36;56.52;99975.16;5081981;28;20043;-59
2023/12/21 07:21:04;;;;;;;10.10;2.55;;;;;;;16.36;56.63;99972.44;5073451;28;20024;-59
2023/12/21 07:23:29;;;;;;;5.47;2.42;;;;;;;16.39;56.13;99971.25;5073202;28;20036;-59
2023/12/21 07:25:54;;;;;;;10.27;2.28;;;;;;;16.38;56.66;99958.75;5074775;28;20033;-59
2023/12/21 07:28:20;;;;;;;14.90;1.60;;;;;;;16.38;55.95;99946.09;5072136;28;20514;-59
2023/12/21 07:30:45;;;;;;;12.18;1.70;;;;;;;16.38;55.79;99935.28;5073178;28;20025;-59
2023/12/21 07:33:11;;;;;;;8.95;1.98;;;;;;;16.41;56.98;99918.69;5056474;28;20032;-59
2023/12/21 07:35:37;;;;;;;9.05;2.03;;;;;;;16.41;56.04;99902.47;5056640;28;20090;-59
2023/12/21 07:38:03;;;;;;;10.07;2.55;;;;;;;16.44;56.70;99895.84;5073279;28;20504;-59
2023/12/21 07:40:28;;;;;;;12.95;1.77;;;;;;;16.45;55.35;99879.41;5073528;28;20039;-59
2023/12/21 07:42:53;;;;;;;7.85;2.17;;;;;;;16.45;56.11;99871.31;5072916;28;20381;-59
2023/12/21 07:45:19;;;;;;;21.15;2.05;;;;;;;16.47;56.45;99873.84;5073009;28;20510;-59
2023/12/21 07:47:44;;;;;;;5.25;1.65;;;;;;;16.47;55.85;99901.69;5071347;28;20500;-59
2023/12/21 07:50:10;;;;;;;5.38;1.50;;;;;;;16.46;55.90;99905.44;5073679;28;20033;-59
2023/12/21 07:52:35;;;;;;;7.55;2.05;;;;;;;16.46;55.79;99886.50;5074003;28;20032;-59
2023/12/21 07:55:01;;;;;;;5.95;2.05;;;;;;;16.44;55.78;99880.47;5072542;28;20029;-60
2023/12/21 07:57:27;;;;;;;8.38;1.65;;;;;;;16.44;56.73;99885.88;5072501;28;20110;-59
2023/12/21 07:59:53;;;;;;;6.80;1.48;;;;;;;16.42;56.50;99866.28;5073972;28;20036;-59
2023/12/21 08:02:18;;;;;;;10.57;1.65;;;;;;;16.42;56.30;99852.75;5072670;28;20532;-59
2023/12/21 08:04:44;;;;;;;7.75;1.45;;;;;;;16.43;56.53;99857.16;5072764;28;20044;-59
2023/12/21 08:07:09;;;;;;;9.20;1.73;;;;;;;16.40;56.59;99857.53;5073793;28;20048;-59
2023/12/21 08:09:34;;;;;;;6.80;1.23;;;;;;;16.37;56.03;99857.91;5068842;28;20037;-59
2023/12/21 08:12:00;;;;;;;10.88;1.73;;;;;;;16.38;56.02;99848.78;5052367;28;20060;-59
2023/12/21 08:14:28;;;;;;;4.43;1.50;;;;;;;16.38;56.43;99851.50;5052157;28;20493;-60
2023/12/21 08:16:54;;;;;;;7.85;1.40;;;;;;;16.34;56.07;99847.47;5053447;28;20078;-60
2023/12/21 08:19:19;;;;;;;4.78;1.67;;;;;;;16.33;56.57;99835.00;5052184;28;20056;-60
2023/12/21 08:21:45;;;;;;;7.18;1.30;;;;;;;16.33;56.05;99843.13;5053269;28;20120;-61
2023/12/21 08:24:10;;;;;;;7.15;1.40;;;;;;;16.30;55.88;99838.91;5035482;28;20111;-60
2023/12/21 08:26:35;;;;;;;8.15;1.88;;;;;;;16.29;56.29;99831.00;5053349;28;20044;-61
2023/12/21 08:29:01;;;;;;;5.47;1.38;;;;;;;16.30;56.80;99840.78;5052107;28;20083;-61
2023/12/21 08:31:27;;;;;;;5.57;1.02;;;;;;;16.26;56.39;99832.22;5052292;28;20040;-61
2023/12/21 08:33:54;;;;;;;4.90;1.42;;;;;;;16.26;56.44;99836.78;5052532;28;20107;-61
2023/12/21 08:36:20;;;;;;;5.95;1.52;;;;;;;16.26;56.36;99829.53;5052065;28;20041;-61
2023/12/21 08:38:47;;;;;;;6.88;1.20;;;;;;;16.26;57.30;99825.97;5052036;28;20040;-61
2023/12/21 08:41:12;;;;;;;5.50;1.00;;;;;;;16.23;56.52;99819.09;5053306;28;20033;-61
2023/12/21 08:43:39;;;;;;;5.15;1.52;;;;;;;16.26;56.46;99825.97;5051856;28;20511;-61
2023/12/21 08:46:05;;;;;;;6.72;1.42;;;;;;;16.24;57.30;99826.19;5052117;28;20033;-61
2023/12/21 08:48:30;;;;;;;5.15;1.48;;;;;;;16.27;56.90;99819.56;5051892;28;20455;-61
2023/12/21 08:50:56;;;;;;;8.50;1.73;;;;;;;16.26;56.70;99825.97;5053014;28;20029;-62
2023/12/21 08:53:22;;;;;;;8.05;2.65;;;;;;;16.27;57.40;99819.56;5051566;28;20036;-61
2023/12/21 08:55:47;;;;;;;4.32;1.23;;;;;;;16.22;56.38;99821.97;5050553;28;20040;-61
2023/12/21 08:58:13;;;;;;;7.05;1.33;;;;;;;16.20;56.34;99807.81;5052663;28;20100;-61
2023/12/21 09:00:38;;;;;;;3.70;1.30;;;;;;;16.19;57.41;99806.16;5052538;28;20060;-61
2023/12/21 09:03:05;;;;;;;8.23;2.33;;;;;;;16.18;57.38;99802.63;5051388;28;20041;-61
2023/12/21 09:05:30;;;;;;;4.18;1.40;;;;;;;16.18;57.16;99799.06;5052852;28;20090;-61
2023/12/21 09:07:56;;;;;;;5.40;0.82;;;;;;;16.19;57.09;99793.47;5052770;28;20029;-60
2023/12/21 09:10:23;;;;;;;6.50;1.20;;;;;;;16.19;56.97;99788.06;5052521;28;20025;-61
2023/12/21 09:12:48;;;;;;;3.67;0.85;;;;;;;16.19;57.68;99788.06;5052650;28;20405;-60
2023/12/21 09:15:14;;;;;;;3.60;1.05;;;;;;;16.20;56.52;99794.31;5050745;28;20052;-61
2023/12/21 09:17:40;;;;;;;3.65;1.05;;;;;;;16.21;57.17;99794.13;5052421;28;20059;-61
2023/12/21 09:20:10;;;;;;;7.55;1.63;;;;;;;16.20;57.59;99788.91;5051480;28;20040;-61
2023/12/21 09:22:37;;;;;;;6.00;1.52;;;;;;;16.21;57.69;99790.59;5052555;28;20122;-61
2023/12/21 09:25:03;;;;;;;5.75;0.75;;;;;;;16.20;57.73;99781.63;5051407;28;20048;-61
2023/12/21 09:27:30;;;;;;;3.13;1.23;;;;;;;16.21;57.67;99760.88;5044986;28;20166;-61
2023/12/21 09:29:57;;;;;;;3.53;0.65;;;;;;;16.23;56.89;99769.59;5035072;28;20029;-60
2023/12/21 09:32:24;;;;;;;2.17;0.88;;;;;;;16.24;57.49;99771.28;5051558;28;20026;-60
2023/12/21 09:34:49;;;;;;;3.50;1.00;;;;;;;16.22;56.94;99768.75;5052572;28;20040;-60
2023/12/21 09:37:15;;;;;;;2.63;0.50;;;;;;;16.27;56.72;99773.63;5051149;28;20029;-60
2023/12/21 09:39:40;;;;;;;1.92;0.90;;;;;;;16.29;57.25;99768.84;5034483;28;20120;-60
2023/12/21 09:42:06;;;;;;;3.58;0.80;;;;;;;16.31;58.05;99769.47;5051222;28;20103;-60
2023/12/21 09:44:33;;;;;;;1.83;0.70;;;;;;;16.34;56.99;99777.22;5052504;28;20523;-59
2023/12/21 09:47:01;;;;;;;3.78;0.50;;;;;;;16.38;57.46;99765.00;5034726;28;20496;-59
2023/12/21 09:49:28;;;;;;;2.22;0.70;;;;;;;16.37;56.71;99757.91;5051278;28;20037;-60
2023/12/21 09:51:53;;;;;;;0.98;0.43;;;;;;;16.42;57.71;99747.34;5052878;28;20075;-60
2023/12/21 09:54:20;;;;;;;1.88;0.70;;;;;;;16.43;56.79;99749.03;5053880;28;20451;-60
2023/12/21 09:56:47;;;;;;;2.65;0.50;;;;;;;16.48;57.52;99748.44;5052953;28;20459;-59
2023/12/21 09:59:13;;;;;;;2.40;0.52;;;;;;;16.54;57.56;99756.66;5055717;28;20523;-59
2023/12/21 10:01:38;;;;;;;7.07;1.42;;;;;;;16.58;57.01;99751.69;5055129;28;20029;-59
2023/12/21 10:04:04;;;;;;;3.88;1.17;;;;;;;16.60;56.98;99749.63;5036677;28;20041;-60
2023/12/21 10:06:29;;;;;;;2.17;0.90;;;;;;;16.61;56.85;99752.13;5050665;28;20033;-60
2023/12/21 10:08:55;;;;;;;5.22;0.80;;;;;;;16.69;56.44;99743.91;5050931;28;20033;-59
2023/12/21 10:11:20;;;;;;;4.55;0.77;;;;;;;16.73;57.01;99752.44;5035167;28;20397;-59
2023/12/21 10:13:47;;;;;;;4.25;0.80;;;;;;;16.74;57.38;99746.84;5055859;28;20036;-59
2023/12/21 10:16:13;;;;;;;5.15;1.45;;;;;;;16.75;56.98;99737.69;5054564;28;20029;-59
2023/12/21 10:18:38;;;;;;;1.63;0.60;;;;;;;16.73;56.50;99726.25;5054468;28;20079;-59
2023/12/21 10:21:03;;;;;;;6.03;1.05;;;;;;;16.75;57.61;99732.28;5054397;28;20044;-60
2023/12/21 10:23:29;;;;;;;3.38;0.93;;;;;;;16.73;56.83;99706.47;5054456;28;20140;-59
2023/12/21 10:25:54;;;;;;;4.30;1.08;;;;;;;16.77;57.01;99713.19;5054307;28;20037;-60
2023/12/21 10:28:23;;;;;;;1.33;0.75;;;;;;;16.82;56.32;99708.84;5053129;28;20045;-59
2023/12/21 10:30:56;;;;;;;3.35;0.90;;;;;;;16.85;56.29;99700.34;5055270;28;20071;-60
2023/12/21 10:33:22;;;;;;;3.50;1.08;;;;;;;16.87;56.11;99708.25;5045884;28;20047;-59
2023/12/21 10:35:47;;;;;;;7.15;0.75;;;;;;;16.88;56.22;99699.09;5037555;28;20029;-59
2023/12/21 10:38:14;;;;;;;2.80;0.68;;;;;;;16.84;56.34;99687.84;5054227;28;20477;-59
2023/12/21 10:40:40;;;;;;;1.35;0.47;;;;;;;16.88;56.38;99678.31;5054143;28;20039;-59
2023/12/21 10:43:06;;;;;;;2.00;0.65;;;;;;;16.95;56.66;99678.34;5053804;28;20472;-59
2023/12/21 10:45:33;;;;;;;2.47;0.75;;;;;;;16.98;56.61;99677.94;5054038;28;20431;-60
2023/12/21 10:48:03;;;;;;;1.75;0.85;;;;;;;17.00;56.85;99683.16;5053959;28;20048;-59
2023/12/21 10:50:30;;;;;;;2.58;0.60;;;;;;;17.04;55.83;99681.72;5053842;28;20108;-59
2023/12/21 10:52:59;;;;;;;3.10;0.52;;;;;;;17.07;56.57;99670.50;5048022;28;20017;-59
2023/12/21 10:55:24;;;;;;;2.33;0.77;;;;;;;17.13;56.12;99670.53;5054091;28;20496;-59
2023/12/21 10:57:52;;;;;;;5.38;0.80;;;;;;;17.18;55.90;99661.81;5053474;28;20037;-59
2023/12/21 11:00:17;;;;;;;4.38;0.80;;;;;;;17.19;55.89;99660.78;5037560;28;20033;-59
2023/12/21 11:02:47;;;;;;;2.40;0.60;;;;;;;17.25;56.10;99678.94;5053674;28;20515;-59
2023/12/21 11:05:33;;;;;;;2.30;0.63;;;;;;;17.26;55.89;99664.34;5036892;28;20056;-60
2023/12/21 11:08:00;;;;;;;2.53;0.77;;;;;;;17.28;56.39;99675.84;5050999;28;20025;-59
2023/12/21 11:10:26;;;;;;;1.30;0.98;;;;;;;17.31;56.14;99672.69;5053731;28;20033;-59
2023/12/21 11:12:52;;;;;;;0.95;0.40;;;;;;;17.33;56.26;99673.34;5054858;28;20041;-59
2023/12/21 11:15:19;;;;;;;1.83;0.70;;;;;;;17.38;56.38;99651.94;5054744;28;20044;-59
2023/12/21 11:17:55;;;;;;;1.10;0.50;;;;;;;17.44;56.41;99667.38;5036769;28;20140;-59
2023/12/21 11:20:29;;;;;;;2.25;0.73;;;;;;;17.49;56.22;99651.34;5053350;28;20523;-59